Dades meteomassalio
Diari Summary for Marc 13, 2017 Units:  Metric    English   Both
« Previous Day
Next Day »
Diari Semanal Mensual Anual Personalitzat
  Maxima: Minima: Mijana:
Temperatura: 14.6 °C 6.9 °C 10.1 °C
Rosada: 9.7 °C 4.9 °C 7.3 °C
Humitat: 92 % 66 % 83 %
Velocitat del vent: 40.2 km/h 0.0 km/h 9.9 km/h
Racha vent: 40.2 km/h - -
Vent:- - WSW
Pressio: 1028.3 hPa 1016.5 hPa -
Pluja: 12.7 mm    
Historical Graphs
 
 
Tabular Data for Marc 13, 2017
Time Temperature Dew Point Pressure Wind Wind Speed Wind Gust Humidity Rainfall Rate (Hourly) solar Conditions
00:04 8.7 °C 5.1 °C 1016.8 hPa NW 31.5 km/h 31.5 km/h 78 % 0.0 mm 0.0 W/m2 RA
00:09 8.5 °C 4.9 °C 1016.8 hPa WNW 33.8 km/h 33.8 km/h 78 % 0.0 mm 0.0 W/m2 CLR
00:14 8.4 °C 4.9 °C 1016.8 hPa WNW 31.5 km/h 31.5 km/h 79 % 0.0 mm 0.0 W/m2 CLR
00:19 8.3 °C 5.2 °C 1016.8 hPa WNW 27.8 km/h 27.8 km/h 81 % 0.3 mm 0.0 W/m2 RA
00:24 8.3 °C 5.2 °C 1016.8 hPa WNW 31.5 km/h 31.5 km/h 81 % 0.3 mm 0.0 W/m2 CLR
00:29 8.3 °C 5.2 °C 1016.8 hPa WNW 25.7 km/h 25.7 km/h 81 % 0.3 mm 0.0 W/m2 CLR
00:34 8.2 °C 5.2 °C 1017.2 hPa NW 29.0 km/h 29.0 km/h 81 % 0.5 mm 0.0 W/m2 RA
00:39 8.2 °C 5.1 °C 1016.8 hPa WNW 40.2 km/h 40.2 km/h 81 % 0.5 mm 0.0 W/m2 CLR
00:44 8.1 °C 5.2 °C 1016.8 hPa NW 31.5 km/h 31.5 km/h 82 % 0.5 mm 0.0 W/m2 CLR
00:49 8.1 °C 5.3 °C 1016.8 hPa WNW 25.9 km/h 25.9 km/h 83 % 0.5 mm 0.0 W/m2 CLR
00:54 8.0 °C 5.3 °C 1016.8 hPa WNW 33.3 km/h 33.3 km/h 83 % 0.3 mm 0.0 W/m2 CLR
00:59 7.9 °C 5.2 °C 1016.5 hPa WNW 37.0 km/h 37.0 km/h 83 % 0.5 mm 0.0 W/m2 RA
01:04 7.8 °C 5.1 °C 1016.8 hPa NW 31.5 km/h 31.5 km/h 83 % 0.5 mm 0.0 W/m2
01:09 7.8 °C 5.1 °C 1016.8 hPa WNW 29.6 km/h 29.6 km/h 83 % 0.5 mm 0.0 W/m2 CLR
01:14 7.8 °C 5.1 °C 1017.2 hPa NW 25.9 km/h 25.9 km/h 83 % 0.5 mm 0.0 W/m2 CLR
01:19 7.8 °C 5.1 °C 1017.2 hPa NW 29.6 km/h 29.6 km/h 83 % 0.5 mm 0.0 W/m2 CLR
01:24 7.8 °C 5.1 °C 1017.2 hPa NW 22.5 km/h 22.5 km/h 83 % 0.5 mm 0.0 W/m2 CLR
01:29 7.9 °C 5.2 °C 1017.2 hPa WNW 25.9 km/h 25.9 km/h 83 % 0.5 mm 0.0 W/m2 CLR
01:34 7.9 °C 5.2 °C 1017.5 hPa NW 29.6 km/h 29.6 km/h 83 % 0.3 mm 0.0 W/m2 CLR
01:39 7.8 °C 5.3 °C 1017.2 hPa West 27.8 km/h 27.8 km/h 84 % 0.3 mm 0.0 W/m2 CLR
01:44 7.8 °C 5.3 °C 1017.2 hPa NNW 25.7 km/h 25.7 km/h 84 % 0.3 mm 0.0 W/m2 CLR
01:49 7.8 °C 5.2 °C 1017.2 hPa WNW 20.4 km/h 20.4 km/h 84 % 0.3 mm 0.0 W/m2 CLR
01:54 7.8 °C 5.4 °C 1017.2 hPa NW 29.0 km/h 29.0 km/h 85 % 0.3 mm 0.0 W/m2 CLR
01:59 7.7 °C 5.3 °C 1017.2 hPa WNW 29.6 km/h 29.6 km/h 85 % 0.0 mm 0.0 W/m2 CLR
02:04 7.6 °C 5.2 °C 1017.2 hPa WNW 33.3 km/h 33.3 km/h 85 % 0.0 mm 0.0 W/m2 CLR
02:09 7.6 °C 5.4 °C 1017.2 hPa WNW 29.6 km/h 29.6 km/h 86 % 0.0 mm 0.0 W/m2 CLR
02:14 7.4 °C 5.3 °C 1017.2 hPa WNW 35.2 km/h 35.2 km/h 86 % 0.0 mm 0.0 W/m2 CLR
02:19 7.3 °C 5.3 °C 1017.2 hPa NNW 20.4 km/h 20.4 km/h 87 % 0.3 mm 0.0 W/m2 RA
02:25 7.3 °C 5.4 °C 1017.2 hPa NNW 25.9 km/h 25.9 km/h 88 % 0.3 mm 0.0 W/m2 CLR
02:30 7.2 °C 5.4 °C 1017.5 hPa WNW 33.3 km/h 33.3 km/h 88 % 0.5 mm 0.0 W/m2 RA
02:35 7.2 °C 5.3 °C 1017.5 hPa WNW 20.4 km/h 20.4 km/h 88 % 0.8 mm 0.0 W/m2 RA
02:40 7.1 °C 5.4 °C 1017.5 hPa NW 31.5 km/h 31.5 km/h 89 % 0.8 mm 0.0 W/m2
02:45 7.1 °C 5.4 °C 1017.5 hPa NW 25.9 km/h 25.9 km/h 89 % 1.0 mm 0.0 W/m2 RA
02:50 7.1 °C 5.4 °C 1017.5 hPa WNW 18.5 km/h 18.5 km/h 89 % 1.0 mm 0.0 W/m2 CLR
02:55 7.1 °C 5.4 °C 1017.2 hPa NW 27.4 km/h 27.4 km/h 89 % 1.3 mm 0.0 W/m2 RA
03:00 7.1 °C 5.4 °C 1017.2 hPa WNW 24.1 km/h 24.1 km/h 89 % 1.3 mm 0.0 W/m2 CLR
03:05 7.0 °C 5.3 °C 1017.2 hPa NW 22.5 km/h 22.5 km/h 89 % 1.5 mm 0.0 W/m2 RA
03:10 7.0 °C 5.4 °C 1017.2 hPa WNW 25.9 km/h 25.9 km/h 90 % 1.5 mm 0.0 W/m2
03:15 7.0 °C 5.4 °C 1017.2 hPa NNW 33.3 km/h 33.3 km/h 90 % 1.5 mm 0.0 W/m2
03:20 7.0 °C 5.4 °C 1017.2 hPa WNW 30.6 km/h 30.6 km/h 90 % 1.5 mm 0.0 W/m2 RA
03:25 7.0 °C 5.4 °C 1017.2 hPa NW 31.5 km/h 31.5 km/h 90 % 1.8 mm 0.0 W/m2 RA
03:30 7.1 °C 5.4 °C 1017.2 hPa NW 27.8 km/h 27.8 km/h 89 % 1.5 mm 0.0 W/m2
03:35 7.0 °C 5.3 °C 1017.2 hPa WNW 25.9 km/h 25.9 km/h 89 % 1.3 mm 0.0 W/m2 CLR
03:40 7.1 °C 5.4 °C 1017.2 hPa NW 25.7 km/h 25.7 km/h 89 % 1.3 mm 0.0 W/m2 CLR
03:46 7.0 °C 5.4 °C 1017.2 hPa NW 20.4 km/h 20.4 km/h 90 % 1.3 mm 0.0 W/m2 RA
03:51 7.0 °C 5.4 °C 1017.2 hPa NW 18.5 km/h 18.5 km/h 90 % 1.0 mm 0.0 W/m2 CLR
03:56 7.0 °C 5.4 °C 1017.5 hPa NNW 18.5 km/h 18.5 km/h 90 % 1.3 mm 0.0 W/m2 RA
04:01 7.0 °C 5.4 °C 1017.5 hPa West 14.8 km/h 14.8 km/h 90 % 1.5 mm 0.0 W/m2 RA
04:06 7.0 °C 5.4 °C 1017.8 hPa SW 11.1 km/h 11.1 km/h 90 % 1.5 mm 0.0 W/m2 RA
04:11 7.0 °C 5.4 °C 1017.8 hPa Calm     90 % 1.5 mm 0.0 W/m2 RA
04:16 7.1 °C 5.5 °C 1017.8 hPa Calm     90 % 1.8 mm 0.0 W/m2 RA
04:21 7.0 °C 5.6 °C 1017.8 hPa Calm     91 % 2.3 mm 0.0 W/m2 RA
04:26 7.0 °C 5.6 °C 1017.8 hPa Calm     91 % 2.5 mm 0.0 W/m2 RA
04:31 7.0 °C 5.6 °C 1017.8 hPa Calm     91 % 3.0 mm 0.0 W/m2 RA
04:36 6.9 °C 5.6 °C 1017.8 hPa Calm     91 % 3.8 mm 0.0 W/m2 RA
04:41 6.9 °C 5.6 °C 1017.5 hPa WNW 7.4 km/h 7.4 km/h 91 % 4.1 mm 0.0 W/m2 RA
04:46 6.9 °C 5.6 °C 1017.5 hPa West 18.5 km/h 18.5 km/h 91 % 4.3 mm 0.0 W/m2 RA
04:51 6.9 °C 5.6 °C 1017.5 hPa West 9.3 km/h 9.3 km/h 91 % 4.3 mm 0.0 W/m2
04:56 7.0 °C 5.8 °C 1017.8 hPa West 14.8 km/h 14.8 km/h 92 % 4.3 mm 0.0 W/m2 RA
05:01 7.0 °C 5.6 °C 1017.8 hPa WNW 14.8 km/h 14.8 km/h 91 % 4.3 mm 0.0 W/m2 RA
05:06 7.0 °C 5.6 °C 1017.8 hPa Calm     91 % 4.3 mm 0.0 W/m2 RA
05:11 7.0 °C 5.6 °C 1018.2 hPa WSW 5.6 km/h   91 % 3.8 mm 0.0 W/m2 CLR
05:16 7.0 °C 5.8 °C 1018.2 hPa Calm     92 % 3.8 mm 0.0 W/m2 RA
05:21 7.0 °C 5.8 °C 1018.5 hPa Calm     92 % 4.1 mm 0.0 W/m2 RA
05:31 7.0 °C 5.8 °C 1018.5 hPa Calm     92 % 3.8 mm 0.0 W/m2 RA
05:36 7.0 °C 5.8 °C 1018.5 hPa Calm     92 % 3.6 mm 0.0 W/m2 RA
05:41 6.9 °C 5.7 °C 1018.8 hPa Calm     92 % 4.1 mm 0.0 W/m2 RA
05:46 6.9 °C 5.7 °C 1018.8 hPa Calm     92 % 4.3 mm 0.0 W/m2 RA
05:51 6.9 °C 5.7 °C 1018.5 hPa West 6.4 km/h 6.4 km/h 92 % 4.8 mm 0.0 W/m2 RA
05:56 6.9 °C 5.7 °C 1018.5 hPa West 11.3 km/h 11.3 km/h 92 % 5.1 mm 0.0 W/m2 RA
06:01 6.9 °C 5.7 °C 1018.5 hPa West 13.0 km/h 13.0 km/h 92 % 5.1 mm 0.0 W/m2 RA
06:06 6.9 °C 5.7 °C 1018.5 hPa West 14.8 km/h 14.8 km/h 92 % 5.1 mm 0.0 W/m2 RA
06:11 6.9 °C 5.7 °C 1018.5 hPa West 18.5 km/h 18.5 km/h 92 % 5.1 mm 0.0 W/m2 CLR
06:16 7.0 °C 5.8 °C 1018.5 hPa West 16.7 km/h 16.7 km/h 92 % 4.6 mm 0.0 W/m2 CLR
06:21 7.1 °C 5.8 °C 1018.5 hPa West 18.5 km/h 18.5 km/h 92 % 4.1 mm 0.0 W/m2 CLR
06:26 7.1 °C 5.8 °C 1018.5 hPa West 18.5 km/h 18.5 km/h 92 % 3.6 mm 0.0 W/m2 CLR
06:31 7.1 °C 5.8 °C 1018.5 hPa WNW 20.4 km/h 20.4 km/h 92 % 3.3 mm 0.0 W/m2 CLR
06:36 7.1 °C 5.8 °C 1018.8 hPa WNW 16.7 km/h 16.7 km/h 92 % 2.5 mm 0.0 W/m2 CLR
06:41 7.1 °C 5.8 °C 1018.8 hPa WNW 18.5 km/h 18.5 km/h 92 % 2.0 mm 0.0 W/m2 CLR
06:46 7.1 °C 5.8 °C 1018.8 hPa WNW 18.5 km/h 18.5 km/h 92 % 1.3 mm 0.0 W/m2 CLR
06:51 7.1 °C 5.8 °C 1018.8 hPa NW 20.4 km/h 20.4 km/h 92 % 0.8 mm 0.0 W/m2 CLR
06:56 7.1 °C 5.8 °C 1018.8 hPa WNW 20.4 km/h 20.4 km/h 92 % 0.5 mm 0.0 W/m2 CLR
07:01 7.1 °C 5.9 °C 1019.2 hPa WNW 20.4 km/h 20.4 km/h 92 % 0.3 mm 0.0 W/m2 CLR
07:06 7.1 °C 5.9 °C 1019.2 hPa WNW 22.2 km/h 22.2 km/h 92 % 0.0 mm 0.0 W/m2 OVC
07:11 7.2 °C 5.9 °C 1019.2 hPa West 18.5 km/h 18.5 km/h 92 % 0.0 mm 0.0 W/m2 OVC
07:16 7.2 °C 5.9 °C 1019.2 hPa West 14.5 km/h 14.5 km/h 92 % 0.0 mm 0.0 W/m2 OVC
07:21 7.2 °C 5.9 °C 1019.2 hPa WNW 18.5 km/h 18.5 km/h 92 % 0.0 mm 0.0 W/m2 OVC
07:26 7.2 °C 5.9 °C 1019.5 hPa WNW 18.5 km/h 18.5 km/h 92 % 0.0 mm 5.0 W/m2 OVC
07:31 7.2 °C 5.9 °C 1019.5 hPa NW 12.9 km/h 12.9 km/h 92 % 0.0 mm 9.0 W/m2 BKN
07:36 7.2 °C 5.9 °C 1019.5 hPa West 13.0 km/h   92 % 0.0 mm 11.0 W/m2 BKN
07:41 7.2 °C 5.9 °C 1019.5 hPa West 4.8 km/h 4.8 km/h 92 % 0.0 mm 9.0 W/m2 BKN
07:46 7.3 °C 6.1 °C 1019.9 hPa Calm   1.6 km/h 92 % 0.0 mm 9.0 W/m2 BKN
07:51 7.3 °C 6.1 °C 1019.9 hPa WSW 1.9 km/h 1.9 km/h 92 % 0.0 mm 7.0 W/m2 BKN
07:57 7.3 °C 6.1 °C 1019.9 hPa Calm     92 % 0.0 mm 7.0 W/m2 BKN
08:01 7.3 °C 6.1 °C 1020.2 hPa WSW 5.6 km/h 5.6 km/h 92 % 0.0 mm 7.0 W/m2 BKN
08:06 7.3 °C 6.1 °C 1020.2 hPa WSW 1.9 km/h   92 % 0.0 mm 7.0 W/m2 BKN
08:11 7.3 °C 6.1 °C 1020.2 hPa Calm     92 % 0.0 mm 7.0 W/m2 BKN
08:16 7.3 °C 6.1 °C 1020.5 hPa Calm     92 % 0.0 mm 5.0 W/m2 BKN
08:22 7.3 °C 6.1 °C 1020.5 hPa Calm     92 % 0.0 mm 11.0 W/m2 BKN
08:27 7.4 °C 6.2 °C 1020.5 hPa Calm     92 % 0.0 mm 18.0 W/m2 BKN
08:32 7.4 °C 6.2 °C 1020.5 hPa Calm     92 % 0.0 mm 18.0 W/m2 BKN
08:37 7.4 °C 6.2 °C 1020.5 hPa WSW 5.6 km/h 5.6 km/h 92 % 0.0 mm 28.0 W/m2 BKN
08:42 7.5 °C 6.3 °C 1020.9 hPa Calm     92 % 0.0 mm 32.0 W/m2 BKN
08:47 7.5 °C 6.3 °C 1020.9 hPa WSW 5.6 km/h 5.6 km/h 92 % 0.0 mm 44.0 W/m2 BKN
08:52 7.5 °C 6.3 °C 1020.9 hPa SW 5.6 km/h 5.6 km/h 92 % 0.0 mm 62.0 W/m2 BKN
08:57 7.6 °C 6.3 °C 1020.9 hPa WSW 3.7 km/h 3.7 km/h 92 % 0.0 mm 70.0 W/m2 SCT
09:02 7.6 °C 6.4 °C 1020.9 hPa Calm   1.3 km/h 92 % 0.0 mm 74.0 W/m2 FEW
09:07 7.7 °C 6.4 °C 1020.9 hPa Calm     92 % 0.0 mm 100.0 W/m2 FEW
09:12 7.8 °C 6.6 °C 1020.9 hPa WSW 5.6 km/h 5.6 km/h 92 % 0.0 mm 98.0 W/m2 CLR
09:17 7.9 °C 6.7 °C 1020.9 hPa SW 5.6 km/h 5.6 km/h 92 % 0.0 mm 109.0 W/m2 CLR
09:22 7.9 °C 6.7 °C 1021.2 hPa WSW 6.4 km/h 6.4 km/h 92 % 0.0 mm 93.0 W/m2 CLR
09:27 8.0 °C 6.6 °C 1021.2 hPa WSW 7.4 km/h 7.4 km/h 91 % 0.0 mm 97.0 W/m2 CLR
09:32 8.1 °C 6.7 °C 1021.2 hPa West 1.9 km/h 1.9 km/h 91 % 0.0 mm 104.0 W/m2 CLR
09:37 8.1 °C 6.7 °C 1021.2 hPa WSW 5.6 km/h 5.6 km/h 91 % 0.0 mm 123.0 W/m2 CLR
09:42 8.2 °C 6.7 °C 1021.2 hPa WSW 6.4 km/h 6.4 km/h 90 % 0.0 mm 121.0 W/m2 CLR
09:47 8.3 °C 6.8 °C 1021.2 hPa West 11.3 km/h 11.3 km/h 90 % 0.0 mm 146.0 W/m2 CLR
09:52 8.4 °C 6.8 °C 1021.2 hPa West 6.4 km/h 6.4 km/h 90 % 0.0 mm 199.0 W/m2 CLR
09:57 8.5 °C 6.9 °C 1021.6 hPa West 13.0 km/h 13.0 km/h 90 % 0.0 mm 155.0 W/m2 CLR
10:02 8.6 °C 7.1 °C 1021.6 hPa West 6.4 km/h 6.4 km/h 90 % 0.0 mm 107.0 W/m2 CLR
10:07 8.6 °C 6.9 °C 1021.6 hPa WNW 5.6 km/h 5.6 km/h 89 % 0.0 mm 104.0 W/m2 CLR
10:12 8.7 °C 6.9 °C 1021.6 hPa West 12.9 km/h 12.9 km/h 89 % 0.0 mm 156.0 W/m2 CLR
10:17 8.8 °C 6.9 °C 1021.6 hPa WSW 11.1 km/h 11.1 km/h 88 % 0.0 mm 229.0 W/m2 CLR
10:22 8.9 °C 7.2 °C 1021.6 hPa SW 7.4 km/h 7.4 km/h 89 % 0.0 mm 181.0 W/m2 CLR
10:27 9.0 °C 7.1 °C 1021.6 hPa WSW 5.6 km/h 5.6 km/h 88 % 0.0 mm 137.0 W/m2 CLR
10:32 9.0 °C 7.1 °C 1021.9 hPa West 7.4 km/h 7.4 km/h 88 % 0.0 mm 100.0 W/m2 CLR
10:37 9.1 °C 7.2 °C 1021.9 hPa NW 5.6 km/h 5.6 km/h 88 % 0.0 mm 114.0 W/m2 CLR
10:42 9.1 °C 7.1 °C 1021.9 hPa West 9.3 km/h 9.3 km/h 87 % 0.0 mm 123.0 W/m2 CLR
10:47 9.2 °C 7.1 °C 1021.9 hPa WNW 8.0 km/h 8.0 km/h 87 % 0.0 mm 146.0 W/m2 CLR
10:52 9.2 °C 7.2 °C 1021.9 hPa West 9.3 km/h 9.3 km/h 87 % 0.0 mm 123.0 W/m2 CLR
10:57 9.3 °C 7.2 °C 1021.9 hPa WNW 11.1 km/h 11.1 km/h 87 % 0.0 mm 98.0 W/m2 CLR
11:02 9.3 °C 7.3 °C 1022.2 hPa NW 9.7 km/h 9.7 km/h 87 % 0.0 mm 77.0 W/m2 CLR
11:07 9.4 °C 7.3 °C 1022.2 hPa WNW 5.6 km/h 5.6 km/h 87 % 0.0 mm 72.0 W/m2 FEW
11:12 9.4 °C 7.2 °C 1022.2 hPa WSW 1.9 km/h   86 % 0.0 mm 67.0 W/m2 FEW
11:17 9.4 °C 7.2 °C 1022.6 hPa Calm     86 % 0.0 mm 67.0 W/m2 FEW
11:22 9.4 °C 7.2 °C 1022.6 hPa Calm     86 % 0.0 mm 74.0 W/m2 FEW
11:27 9.4 °C 7.2 °C 1022.2 hPa Calm     86 % 0.3 mm 120.0 W/m2 RA
11:32 9.4 °C 7.4 °C 1022.2 hPa West 3.7 km/h 3.7 km/h 87 % 0.3 mm 149.0 W/m2 CLR
11:37 9.5 °C 7.6 °C 1022.2 hPa WNW 7.4 km/h 7.4 km/h 88 % 0.3 mm 216.0 W/m2 CLR
11:42 9.7 °C 7.8 °C 1022.2 hPa Calm     88 % 0.3 mm 220.0 W/m2 CLR
11:47 9.8 °C 7.9 °C 1022.2 hPa West 8.0 km/h 8.0 km/h 88 % 0.3 mm 200.0 W/m2 CLR
11:52 9.8 °C 7.8 °C 1022.6 hPa NW 9.7 km/h 9.7 km/h 87 % 0.3 mm 204.0 W/m2 CLR
11:57 9.9 °C 7.8 °C 1022.6 hPa NW 13.0 km/h 13.0 km/h 87 % 0.3 mm 260.0 W/m2 CLR
12:02 9.9 °C 7.9 °C 1022.6 hPa NW 13.0 km/h 13.0 km/h 87 % 0.3 mm 244.0 W/m2 CLR
12:07 10.1 °C 8.2 °C 1022.6 hPa WNW 14.5 km/h 14.5 km/h 88 % 0.3 mm 323.0 W/m2 CLR
12:12 10.1 °C 7.7 °C 1022.6 hPa WNW 14.5 km/h 14.5 km/h 85 % 0.3 mm 279.0 W/m2 CLR
12:17 10.1 °C 7.7 °C 1022.6 hPa WSW 14.5 km/h 14.5 km/h 85 % 0.3 mm 230.0 W/m2 CLR
12:22 10.2 °C 7.8 °C 1022.6 hPa West 11.1 km/h 11.1 km/h 85 % 0.3 mm 229.0 W/m2 CLR
12:27 10.2 °C 7.8 °C 1022.2 hPa West 11.3 km/h 11.3 km/h 85 % 0.0 mm 216.0 W/m2 CLR
12:32 10.3 °C 7.9 °C 1022.2 hPa West 18.5 km/h 18.5 km/h 85 % 0.0 mm 223.0 W/m2 CLR
12:37 10.4 °C 8.0 °C 1022.6 hPa WSW 9.3 km/h 9.3 km/h 85 % 0.0 mm 211.0 W/m2 CLR
12:42 10.3 °C 7.6 °C 1022.6 hPa SW 7.4 km/h 7.4 km/h 83 % 0.0 mm 204.0 W/m2 CLR
12:47 10.4 °C 7.8 °C 1022.6 hPa WSW 7.4 km/h 7.4 km/h 84 % 0.0 mm 171.0 W/m2 CLR
12:52 10.4 °C 7.8 °C 1022.6 hPa West 1.6 km/h 2.3 km/h 84 % 0.0 mm 172.0 W/m2 CLR
12:57 10.5 °C 7.9 °C 1022.6 hPa West 7.4 km/h 7.4 km/h 84 % 0.0 mm 183.0 W/m2 CLR
13:02 10.6 °C 7.8 °C 1022.6 hPa West 5.6 km/h 5.6 km/h 83 % 0.0 mm 163.0 W/m2 CLR
13:07 10.6 °C 7.8 °C 1022.6 hPa West 11.1 km/h 11.1 km/h 83 % 0.0 mm 149.0 W/m2 CLR
13:12 10.7 °C 7.9 °C 1022.6 hPa WSW 3.7 km/h   83 % 0.0 mm 171.0 W/m2 CLR
13:17 10.8 °C 8.2 °C 1022.6 hPa West 5.6 km/h 5.6 km/h 84 % 0.0 mm 174.0 W/m2 CLR
13:22 10.8 °C 7.9 °C 1022.6 hPa SW 5.6 km/h 5.6 km/h 82 % 0.0 mm 144.0 W/m2 CLR
13:27 10.9 °C 7.9 °C 1022.6 hPa SW 3.7 km/h 3.7 km/h 82 % 0.0 mm 144.0 W/m2 CLR
13:32 10.9 °C 8.0 °C 1022.6 hPa WSW 5.6 km/h 5.6 km/h 82 % 0.0 mm 172.0 W/m2 CLR
13:37 11.1 °C 8.3 °C 1022.6 hPa WNW 5.6 km/h 5.6 km/h 83 % 0.0 mm 183.0 W/m2 CLR
13:42 11.1 °C 8.2 °C 1022.2 hPa NW 5.6 km/h 5.6 km/h 82 % 0.0 mm 199.0 W/m2 CLR
13:47 11.3 °C 8.1 °C 1022.2 hPa Calm     81 % 0.0 mm 227.0 W/m2 CLR
13:52 11.3 °C 8.2 °C 1022.2 hPa SW 7.4 km/h 7.4 km/h 81 % 0.0 mm 250.0 W/m2 CLR
13:57 11.4 °C 8.2 °C 1022.2 hPa West 1.9 km/h   81 % 0.0 mm 248.0 W/m2 CLR
14:02 11.6 °C 8.2 °C 1022.2 hPa SW 3.7 km/h 3.7 km/h 80 % 0.0 mm 288.0 W/m2 CLR
14:07 11.6 °C 8.1 °C 1022.2 hPa West 7.4 km/h 7.4 km/h 79 % 0.0 mm 327.0 W/m2 CLR
14:12 11.8 °C 8.4 °C 1021.9 hPa WSW 5.6 km/h 5.6 km/h 80 % 0.0 mm 392.0 W/m2 CLR
14:17 11.9 °C 8.4 °C 1021.9 hPa West 5.6 km/h 5.6 km/h 79 % 0.0 mm 262.0 W/m2 CLR
14:22 12.0 °C 8.4 °C 1021.9 hPa WSW 9.3 km/h 9.3 km/h 79 % 0.0 mm 364.0 W/m2 CLR
14:27 12.1 °C 8.4 °C 1021.9 hPa West 3.2 km/h 3.2 km/h 78 % 0.0 mm 454.0 W/m2 CLR
14:32 12.5 °C 9.2 °C 1021.9 hPa SW 5.6 km/h   80 % 0.0 mm 575.0 W/m2 CLR
14:37 12.8 °C 9.1 °C 1021.9 hPa West 8.0 km/h 8.0 km/h 78 % 0.0 mm 635.0 W/m2 CLR
14:42 13.1 °C 8.9 °C 1021.9 hPa WSW 5.6 km/h 5.6 km/h 76 % 0.0 mm 540.0 W/m2 CLR
14:47 13.3 °C 8.9 °C 1021.9 hPa West 7.4 km/h 7.4 km/h 75 % 0.0 mm 673.0 W/m2 CLR
14:52 13.5 °C 8.9 °C 1021.6 hPa Calm   1.4 km/h 74 % 0.0 mm 729.0 W/m2 CLR
14:57 13.8 °C 9.3 °C 1021.6 hPa WSW 8.0 km/h 8.0 km/h 74 % 0.0 mm 506.0 W/m2 CLR
15:02 13.9 °C 9.1 °C 1021.6 hPa WNW 8.0 km/h 8.0 km/h 73 % 0.0 mm 626.0 W/m2 CLR
15:07 14.2 °C 9.6 °C 1021.6 hPa Calm     74 % 0.0 mm 647.0 W/m2 CLR
15:12 14.6 °C 9.3 °C 1021.6 hPa WSW 9.3 km/h 9.3 km/h 71 % 0.0 mm 494.0 W/m2 CLR
15:18 14.3 °C 8.9 °C 1021.6 hPa SW 9.3 km/h 9.3 km/h 70 % 0.0 mm 315.0 W/m2 CLR
15:23 14.1 °C 8.9 °C 1021.6 hPa WSW 7.4 km/h 7.4 km/h 71 % 0.0 mm 281.0 W/m2 CLR
15:28 14.0 °C 8.6 °C 1021.6 hPa West 7.4 km/h 7.4 km/h 70 % 0.0 mm 279.0 W/m2 CLR
15:33 13.9 °C 8.8 °C 1021.6 hPa Calm     71 % 0.0 mm 283.0 W/m2 CLR
15:38 14.0 °C 8.8 °C 1021.6 hPa Calm     71 % 0.0 mm 281.0 W/m2 CLR
15:43 14.2 °C 9.0 °C 1021.6 hPa Calm     71 % 0.0 mm 260.0 W/m2 CLR
15:48 14.2 °C 9.1 °C 1021.6 hPa Calm     71 % 0.0 mm 301.0 W/m2 CLR
15:53 14.3 °C 8.7 °C 1021.6 hPa Calm     69 % 0.0 mm 264.0 W/m2 CLR
15:58 14.5 °C 9.3 °C 1021.6 hPa Calm     71 % 0.0 mm 234.0 W/m2 CLR
16:03 14.4 °C 8.6 °C 1021.6 hPa West 5.6 km/h 5.6 km/h 68 % 0.0 mm 218.0 W/m2 CLR
16:08 14.4 °C 8.6 °C 1021.6 hPa West 1.9 km/h 1.9 km/h 68 % 0.0 mm 216.0 W/m2 CLR
16:13 14.4 °C 8.8 °C 1021.6 hPa Calm     69 % 0.0 mm 214.0 W/m2 CLR
16:18 14.4 °C 8.4 °C 1021.9 hPa Calm     67 % 0.0 mm 178.0 W/m2 CLR
16:23 14.6 °C 8.7 °C 1021.9 hPa Calm     68 % 0.0 mm 158.0 W/m2 CLR
16:28 14.6 °C 8.5 °C 1021.9 hPa Calm     67 % 0.0 mm 127.0 W/m2 CLR
16:33 14.6 °C 8.7 °C 1021.9 hPa Calm     68 % 0.0 mm 90.0 W/m2 CLR
16:38 14.5 °C 8.2 °C 1021.9 hPa Calm     66 % 0.0 mm 83.0 W/m2 CLR
16:43 14.5 °C 8.7 °C 1021.9 hPa Calm     68 % 0.0 mm 83.0 W/m2 CLR
16:48 14.4 °C 8.4 °C 1021.9 hPa Calm     67 % 0.0 mm 83.0 W/m2 FEW
16:53 14.4 °C 8.4 °C 1021.9 hPa Calm     67 % 0.0 mm 88.0 W/m2 FEW
16:58 14.4 °C 8.6 °C 1021.9 hPa Calm     68 % 0.0 mm 84.0 W/m2 CLR
17:03 14.4 °C 8.6 °C 1022.2 hPa Calm     68 % 0.0 mm 77.0 W/m2 FEW
17:08 14.4 °C 8.8 °C 1022.2 hPa Calm     69 % 0.0 mm 81.0 W/m2 FEW
17:13 14.4 °C 8.3 °C 1022.2 hPa Calm     67 % 0.0 mm 70.0 W/m2 FEW
17:18 14.4 °C 8.6 °C 1022.2 hPa Calm     68 % 0.0 mm 60.0 W/m2 FEW
17:23 14.3 °C 8.5 °C 1022.2 hPa Calm     68 % 0.0 mm 53.0 W/m2 SCT
17:28 14.3 °C 8.5 °C 1022.6 hPa Calm     68 % 0.0 mm 39.0 W/m2 SCT
17:34 14.3 °C 8.4 °C 1022.6 hPa Calm     68 % 0.0 mm 39.0 W/m2 BKN
17:39 14.1 °C 9.5 °C 1022.6 hPa SSE 11.1 km/h 11.1 km/h 74 % 0.0 mm 26.0 W/m2 BKN
17:44 13.7 °C 9.7 °C 1022.9 hPa SSE 11.1 km/h 11.1 km/h 77 % 0.0 mm 26.0 W/m2 BKN
17:49 13.4 °C 9.7 °C 1022.9 hPa SSE 13.0 km/h 13.0 km/h 78 % 0.0 mm 19.0 W/m2 BKN
17:54 13.3 °C 9.5 °C 1022.9 hPa South 6.4 km/h 6.4 km/h 78 % 0.0 mm 23.0 W/m2 BKN
17:59 13.2 °C 9.4 °C 1023.2 hPa SSE 5.6 km/h 5.6 km/h 78 % 0.0 mm 14.0 W/m2 BKN
18:04 13.1 °C 9.3 °C 1023.2 hPa SE 14.8 km/h 14.8 km/h 78 % 0.0 mm 9.0 W/m2 BKN
18:09 12.9 °C 9.2 °C 1023.2 hPa South 14.8 km/h 14.8 km/h 78 % 0.0 mm 9.0 W/m2 BKN
18:14 12.9 °C 9.2 °C 1023.6 hPa SSE 9.3 km/h 9.3 km/h 78 % 0.0 mm 11.0 W/m2 BKN
18:19 12.8 °C 9.1 °C 1023.6 hPa SSE 14.8 km/h 14.8 km/h 78 % 0.0 mm 12.0 W/m2 BKN
18:24 12.7 °C 9.0 °C 1023.6 hPa SSW 13.0 km/h 13.0 km/h 78 % 0.0 mm 9.0 W/m2 BKN
18:29 12.7 °C 8.9 °C 1023.6 hPa SSE 7.4 km/h 7.4 km/h 78 % 0.0 mm 9.0 W/m2 BKN
18:34 12.6 °C 8.9 °C 1023.9 hPa SSW 14.8 km/h 14.8 km/h 78 % 0.0 mm 7.0 W/m2 BKN
18:39 12.6 °C 8.9 °C 1023.9 hPa South 11.3 km/h 11.3 km/h 78 % 0.0 mm 5.0 W/m2 OVC
18:44 12.6 °C 8.8 °C 1023.9 hPa South 11.1 km/h 11.1 km/h 78 % 0.0 mm 0.0 W/m2 OVC
18:49 12.6 °C 8.8 °C 1024.3 hPa South 13.0 km/h 13.0 km/h 78 % 0.0 mm 0.0 W/m2 OVC
18:54 12.5 °C 8.8 °C 1024.3 hPa SSE 14.8 km/h 14.8 km/h 78 % 0.0 mm 0.0 W/m2 OVC
18:59 12.6 °C 8.6 °C 1024.3 hPa South 13.0 km/h 13.0 km/h 77 % 0.0 mm 0.0 W/m2 OVC
19:04 12.5 °C 8.6 °C 1024.3 hPa South 7.4 km/h 7.4 km/h 77 % 0.0 mm 0.0 W/m2 OVC
19:09 12.4 °C 8.7 °C 1024.3 hPa South 7.4 km/h 7.4 km/h 78 % 0.0 mm 0.0 W/m2 OVC
19:14 12.4 °C 8.7 °C 1024.6 hPa SSW 7.4 km/h 7.4 km/h 78 % 0.0 mm 0.0 W/m2 CLR
19:19 12.4 °C 8.7 °C 1024.6 hPa SW 9.3 km/h 9.3 km/h 78 % 0.0 mm 0.0 W/m2 CLR
19:24 12.4 °C 8.7 °C 1024.6 hPa SSW 5.6 km/h   78 % 0.0 mm 0.0 W/m2 CLR
19:29 12.3 °C 8.6 °C 1024.9 hPa Calm     78 % 0.0 mm 0.0 W/m2 CLR
19:34 12.3 °C 8.7 °C 1024.9 hPa SSW 5.6 km/h 5.6 km/h 79 % 0.0 mm 0.0 W/m2 CLR
19:39 12.3 °C 8.6 °C 1024.9 hPa SSW 8.0 km/h 8.0 km/h 78 % 0.0 mm 0.0 W/m2 CLR
19:44 12.3 °C 8.6 °C 1024.9 hPa SW 5.6 km/h 5.6 km/h 78 % 0.0 mm 0.0 W/m2 CLR
19:49 12.3 °C 8.7 °C 1025.3 hPa SW 3.7 km/h 3.7 km/h 79 % 0.0 mm 0.0 W/m2 CLR
19:54 12.3 °C 8.7 °C 1025.3 hPa Calm     79 % 0.0 mm 0.0 W/m2 CLR
19:59 12.3 °C 8.7 °C 1025.3 hPa SW 3.2 km/h 3.2 km/h 79 % 0.0 mm 0.0 W/m2 CLR
20:04 12.3 °C 8.6 °C 1025.6 hPa SSW 3.7 km/h   78 % 0.0 mm 0.0 W/m2 CLR
20:09 12.3 °C 8.6 °C 1025.6 hPa SW 5.6 km/h 5.6 km/h 78 % 0.0 mm 0.0 W/m2 CLR
20:14 12.4 °C 8.7 °C 1025.6 hPa SSW 6.4 km/h 6.4 km/h 78 % 0.0 mm 0.0 W/m2 CLR
20:19 12.4 °C 8.5 °C 1026.0 hPa SSW 9.3 km/h 9.3 km/h 77 % 0.0 mm 0.0 W/m2 CLR
20:24 12.5 °C 8.6 °C 1026.0 hPa SW 13.0 km/h 13.0 km/h 77 % 0.0 mm 0.0 W/m2 CLR
20:29 12.5 °C 8.6 °C 1026.0 hPa SSW 13.0 km/h 13.0 km/h 77 % 0.0 mm 0.0 W/m2 CLR
20:34 12.5 °C 8.6 °C 1026.0 hPa SW 7.4 km/h 7.4 km/h 77 % 0.0 mm 0.0 W/m2 CLR
20:39 12.5 °C 8.8 °C 1026.3 hPa SW 9.7 km/h 9.7 km/h 78 % 0.0 mm 0.0 W/m2 CLR
20:44 12.5 °C 8.8 °C 1026.3 hPa SW 9.7 km/h 9.7 km/h 78 % 0.0 mm 0.0 W/m2 CLR
20:49 12.5 °C 8.8 °C 1026.3 hPa SSW 11.1 km/h 11.1 km/h 78 % 0.0 mm 0.0 W/m2 CLR
20:54 12.6 °C 8.8 °C 1026.3 hPa SW 7.4 km/h 7.4 km/h 78 % 0.0 mm 0.0 W/m2 CLR
20:59 12.5 °C 8.8 °C 1026.6 hPa Calm     78 % 0.0 mm 0.0 W/m2 CLR
21:04 12.4 °C 8.7 °C 1026.6 hPa South 11.1 km/h 11.1 km/h 78 % 0.0 mm 0.0 W/m2 CLR
21:09 12.4 °C 8.9 °C 1026.6 hPa SSW 11.1 km/h 11.1 km/h 79 % 0.0 mm 0.0 W/m2 CLR
21:14 12.4 °C 8.9 °C 1027.0 hPa SSE 9.3 km/h 9.3 km/h 79 % 0.0 mm 0.0 W/m2 CLR
21:19 12.4 °C 9.1 °C 1027.0 hPa SW 9.3 km/h 9.3 km/h 80 % 0.0 mm 0.0 W/m2 CLR
21:24 12.4 °C 9.3 °C 1027.0 hPa South 5.6 km/h 5.6 km/h 81 % 0.0 mm 0.0 W/m2 CLR
21:29 12.4 °C 9.2 °C 1027.0 hPa SSE 5.6 km/h 5.6 km/h 81 % 0.0 mm 0.0 W/m2 CLR
21:34 12.4 °C 9.2 °C 1027.3 hPa South 5.6 km/h 5.6 km/h 81 % 0.0 mm 0.0 W/m2 CLR
21:39 12.4 °C 9.4 °C 1027.3 hPa South 11.3 km/h 11.3 km/h 82 % 0.0 mm 0.0 W/m2 CLR
21:44 12.4 °C 9.4 °C 1027.3 hPa South 5.6 km/h 5.6 km/h 82 % 0.0 mm 0.0 W/m2 CLR
21:49 12.3 °C 9.3 °C 1027.7 hPa SSE 3.7 km/h 3.7 km/h 82 % 0.0 mm 0.0 W/m2 CLR
21:54 12.4 °C 9.4 °C 1027.7 hPa SSE 12.9 km/h 12.9 km/h 82 % 0.0 mm 0.0 W/m2 CLR
21:59 12.4 °C 9.4 °C 1027.7 hPa SE 5.6 km/h 5.6 km/h 82 % 0.0 mm 0.0 W/m2 CLR
22:04 12.4 °C 9.6 °C 1027.7 hPa South 8.0 km/h 8.0 km/h 83 % 0.0 mm 0.0 W/m2 CLR
22:09 12.4 °C 9.6 °C 1028.0 hPa Calm     83 % 0.0 mm 0.0 W/m2 CLR
22:14 12.4 °C 9.6 °C 1028.0 hPa Calm     83 % 0.0 mm 0.0 W/m2 CLR
22:19 12.3 °C 9.5 °C 1028.0 hPa Calm     83 % 0.0 mm 0.0 W/m2 CLR
22:24 12.3 °C 9.3 °C 1028.0 hPa SSW 5.6 km/h   82 % 0.0 mm 0.0 W/m2 CLR
22:29 12.3 °C 9.3 °C 1028.0 hPa Calm     82 % 0.0 mm 0.0 W/m2 CLR
22:34 12.2 °C 9.2 °C 1028.0 hPa Calm     82 % 0.0 mm 0.0 W/m2 CLR
22:39 12.2 °C 9.2 °C 1028.3 hPa Calm     82 % 0.0 mm 0.0 W/m2 CLR
22:44 12.1 °C 9.1 °C 1028.3 hPa Calm     82 % 0.0 mm 0.0 W/m2 CLR
22:49 12.1 °C 9.1 °C 1028.3 hPa Calm     82 % 0.0 mm 0.0 W/m2 CLR
22:54 12.0 °C 9.2 °C 1028.3 hPa Calm     83 % 0.0 mm 0.0 W/m2 CLR
22:59 11.9 °C 9.2 °C 1028.3 hPa Calm   0.2 km/h 83 % 0.0 mm 0.0 W/m2 CLR
23:04 11.9 °C 8.9 °C 1028.3 hPa Calm     82 % 0.0 mm 0.0 W/m2 CLR
23:09 11.9 °C 8.9 °C 1028.3 hPa SSW 8.0 km/h 8.0 km/h 82 % 0.0 mm 0.0 W/m2 CLR
23:14 11.9 °C 8.7 °C 1028.3 hPa SW 5.6 km/h   81 % 0.0 mm 0.0 W/m2 CLR
23:20 11.9 °C 8.8 °C 1028.3 hPa Calm     81 % 0.0 mm 0.0 W/m2 CLR
23:25 11.9 °C 8.6 °C 1028.3 hPa Calm     80 % 0.0 mm 0.0 W/m2 CLR
23:30 11.9 °C 8.6 °C 1028.3 hPa Calm     80 % 0.0 mm 0.0 W/m2 CLR
23:35 11.8 °C 8.5 °C 1028.3 hPa Calm     80 % 0.0 mm 0.0 W/m2 CLR
23:40 11.8 °C 8.4 °C 1028.3 hPa Calm     80 % 0.0 mm 0.0 W/m2 CLR
23:45 11.7 °C 8.4 °C 1028.3 hPa Calm     80 % 0.0 mm 0.0 W/m2 CLR
23:50 11.5 °C 8.2 °C 1028.3 hPa Calm     80 % 0.0 mm 0.0 W/m2 CLR
23:55 11.2 °C 8.0 °C 1028.3 hPa Calm     81 % 0.0 mm 0.0 W/m2 CLR
Lo Temps de Massalio
Compliments of Weather Underground - 1.25 mb